| time (UTC) | temp F | wind direction | speed MPH | gust MPH | rain 1hr in | rain 24hr in | rain mn in | humidity % | barometer mb |
| 20260510220052 | 66 | 185 | 11.0 | 20.0 | 0.01 | 0.07 | 0.07 | 49 | 1018.8 |
| 20260510215551 | 66 | 185 | 9.0 | 17.0 | 0.02 | 0.07 | 0.07 | 51 | 1018.8 |
| 20260510215052 | 66 | 185 | 8.0 | 13.0 | 0.04 | 0.07 | 0.07 | 48 | 1018.9 |
| 20260510214551 | 65 | 185 | 5.0 | 10.0 | 0.06 | 0.07 | 0.07 | 53 | 1018.9 |
| 20260510214051 | 65 | 185 | 6.0 | 10.0 | 0.07 | 0.07 | 0.07 | 58 | 1018.9 |
| 20260510213553 | 64 | 185 | 6.0 | 12.0 | 0.07 | 0.07 | 0.07 | 60 | 1018.9 |
| 20260510213104 | 63 | 185 | 7.0 | 13.0 | 0.07 | 0.07 | 0.07 | 59 | 1018.9 |
| 20260510212550 | 63 | 185 | 6.0 | 11.0 | 0.07 | 0.07 | 0.07 | 62 | 1019.0 |
| 20260510212051 | 62 | 185 | 4.0 | 10.0 | 0.07 | 0.07 | 0.07 | 65 | 1018.9 |
| 20260510211627 | 61 | 185 | 6.0 | 10.0 | 0.07 | 0.07 | 0.07 | 63 | 1018.9 |
| 20260510211048 | 60 | 185 | 7.0 | 10.0 | 0.07 | 0.07 | 0.07 | 63 | 1018.8 |
| 20260510210551 | 60 | 185 | 5.0 | 7.0 | 0.07 | 0.07 | 0.07 | 61 | 1019.0 |
| 20260510210047 | 59 | 185 | 3.0 | 8.0 | 0.06 | 0.06 | 0.06 | 57 | 1019.2 |
| 20260510205549 | 60 | 185 | 6.0 | 10.0 | 0.05 | 0.05 | 0.05 | 53 | 1019.2 |
| 20260510205046 | 61 | 185 | 5.0 | 15.0 | 0.03 | 0.03 | 0.03 | 50 | 1019.1 |
| 20260510204544 | 64 | 185 | 7.0 | 15.0 | 0.01 | 0.01 | 0.01 | 46 | 1018.9 |
| 20260510204042 | 65 | 185 | 10.0 | 16.0 | 0.00 | 0.00 | 0.00 | 43 | 1018.7 |
| 20260510203542 | 66 | 185 | 9.0 | 17.0 | 0.00 | 0.00 | 0.00 | 38 | 1018.5 |
| 20260510203041 | 67 | 185 | 13.0 | 17.0 | 0.00 | 0.00 | 0.00 | 36 | 1018.5 |
| 20260510202543 | 67 | 185 | 12.0 | 18.0 | 0.00 | 0.00 | 0.00 | 35 | 1018.2 |
| 20260510202042 | 68 | 185 | 12.0 | 18.0 | 0.00 | 0.00 | 0.00 | 35 | 1018.1 |
| 20260510201539 | 68 | 185 | 12.0 | 18.0 | 0.00 | 0.00 | 0.00 | 34 | 1017.9 |
| 20260510201038 | 69 | 185 | 12.0 | 16.0 | 0.00 | 0.00 | 0.00 | 33 | 1017.8 |
| 20260510200538 | 69 | 185 | 10.0 | 15.0 | 0.00 | 0.00 | 0.00 | 32 | 1017.8 |
| 20260510200040 | 70 | 185 | 11.0 | 15.0 | 0.00 | 0.00 | 0.00 | 32 | 1017.8 |
| 20260510195537 | 70 | 185 | 10.0 | 14.0 | 0.00 | 0.00 | 0.00 | 31 | 1017.7 |
| 20260510195038 | 71 | 185 | 9.0 | 13.0 | 0.00 | 0.00 | 0.00 | 30 | 1017.6 |
| 20260510194544 | 71 | 185 | 4.0 | 15.0 | 0.00 | 0.00 | 0.00 | 30 | 1017.6 |
| 20260510194037 | 72 | 185 | 7.0 | 15.0 | 0.00 | 0.00 | 0.00 | 29 | 1017.4 |
| 20260510193539 | 74 | 185 | 9.0 | 20.0 | 0.00 | 0.00 | 0.00 | 29 | 1017.5 |
| 20260510193038 | 73 | 185 | 13.0 | 22.0 | 0.00 | 0.00 | 0.00 | 29 | 1017.3 |
| 20260510192538 | 72 | 185 | 11.0 | 22.0 | 0.00 | 0.00 | 0.00 | 30 | 1017.5 |
| 20260510192036 | 72 | 185 | 10.0 | 14.0 | 0.00 | 0.00 | 0.00 | 30 | 1017.5 |
| 20260510191556 | 72 | 185 | 4.0 | 12.0 | 0.00 | 0.00 | 0.00 | 29 | 1017.6 |
| 20260510191036 | 72 | 185 | 4.0 | 15.0 | 0.00 | 0.00 | 0.00 | 28 | 1017.6 |
| 20260510190535 | 73 | 185 | 7.0 | 15.0 | 0.00 | 0.00 | 0.00 | 28 | 1017.6 |
| 20260510190042 | 73 | 185 | 8.0 | 14.0 | 0.00 | 0.00 | 0.00 | 28 | 1017.6 |
| 20260510185538 | 73 | 185 | 7.0 | 15.0 | 0.00 | 0.00 | 0.00 | 27 | 1017.6 |
| 20260510185035 | 74 | 185 | 11.0 | 15.0 | 0.00 | 0.00 | 0.00 | 27 | 1017.6 |
| 20260510184533 | 73 | 185 | 0.0 | 11.0 | 0.00 | 0.00 | 0.00 | 28 | 1017.5 |
| 20260510184036 | 72 | 185 | 6.0 | 13.0 | 0.00 | 0.00 | 0.00 | 29 | 1017.7 |
| 20260510183533 | 72 | 185 | 6.0 | 13.0 | 0.00 | 0.00 | 0.00 | 28 | 1017.6 |
| 20260510183033 | 73 | 185 | 2.0 | 15.0 | 0.00 | 0.00 | 0.00 | 28 | 1017.6 |
| 20260510182531 | 73 | 185 | 8.0 | 15.0 | 0.00 | 0.00 | 0.00 | 28 | 1017.6 |
| 20260510182031 | 73 | 185 | 9.0 | 15.0 | 0.00 | 0.00 | 0.00 | 29 | 1017.6 |
| 20260510181531 | 72 | 185 | 1.0 | 10.0 | 0.00 | 0.00 | 0.00 | 30 | 1017.5 |
| 20260510181029 | 72 | 185 | 5.0 | 12.0 | 0.00 | 0.00 | 0.00 | 30 | 1017.6 |
| 20260510180532 | 71 | 185 | 0.0 | 8.0 | 0.00 | 0.00 | 0.00 | 30 | 1017.7 |
| 20260510180033 | 71 | 185 | 4.0 | 9.0 | 0.00 | 0.00 | 0.00 | 30 | 1017.8 |
| 20260510175528 | 71 | 185 | 4.0 | 13.0 | 0.00 | 0.00 | 0.00 | 30 | 1017.7 |
| 20260510175032 | 70 | 185 | 4.0 | 14.0 | 0.00 | 0.00 | 0.00 | 31 | 1017.7 |
| 20260510174528 | 70 | 185 | 6.0 | 14.0 | 0.00 | 0.00 | 0.00 | 31 | 1017.6 |
| 20260510174028 | 71 | 185 | 8.0 | 12.0 | 0.00 | 0.00 | 0.00 | 31 | 1017.6 |
| 20260510173529 | 71 | 185 | 2.0 | 10.0 | 0.00 | 0.00 | 0.00 | 31 | 1017.6 |
| 20260510173026 | 70 | 185 | 5.0 | 14.0 | 0.00 | 0.00 | 0.00 | 32 | 1017.6 |
| 20260510172524 | 70 | 185 | 7.0 | 14.0 | 0.00 | 0.00 | 0.00 | 33 | 1017.7 |
| 20260510172027 | 69 | 185 | 4.0 | 12.0 | 0.00 | 0.00 | 0.00 | 33 | 1017.7 |
| 20260510171524 | 69 | 185 | 7.0 | 14.0 | 0.00 | 0.00 | 0.00 | 34 | 1017.6 |
| 20260510171024 | 69 | 185 | 8.0 | 15.0 | 0.00 | 0.00 | 0.00 | 34 | 1017.6 |
| 20260510170526 | 69 | 185 | 8.0 | 15.0 | 0.00 | 0.00 | 0.00 | 34 | 1017.6 |
| 20260510170028 | 68 | 185 | 6.0 | 13.0 | 0.00 | 0.00 | 0.00 | 34 | 1017.6 |
| 20260510165524 | 68 | 185 | 8.0 | 13.0 | 0.00 | 0.00 | 0.00 | 35 | 1017.7 |
| 20260510165024 | 68 | 185 | 5.0 | 12.0 | 0.00 | 0.00 | 0.00 | 35 | 1017.6 |
| 20260510164523 | 68 | 185 | 8.0 | 13.0 | 0.00 | 0.00 | 0.00 | 36 | 1017.7 |
| 20260510164023 | 67 | 185 | 8.0 | 15.0 | 0.00 | 0.00 | 0.00 | 36 | 1017.6 |
| 20260510163523 | 67 | 185 | 9.0 | 17.0 | 0.00 | 0.00 | 0.00 | 37 | 1017.6 |
| 20260510163023 | 67 | 185 | 9.0 | 17.0 | 0.00 | 0.00 | 0.00 | 37 | 1017.5 |
| 20260510162522 | 67 | 185 | 8.0 | 13.0 | 0.00 | 0.00 | 0.00 | 36 | 1017.6 |
| 20260510162022 | 68 | 185 | 8.0 | 15.0 | 0.00 | 0.00 | 0.00 | 36 | 1017.5 |
| 20260510161524 | 68 | 185 | 10.0 | 15.0 | 0.00 | 0.00 | 0.00 | 35 | 1017.4 |
| 20260510161022 | 68 | 185 | 7.0 | 15.0 | 0.00 | 0.00 | 0.00 | 33 | 1017.4 |
| 20260510160524 | 69 | 185 | 6.0 | 15.0 | 0.00 | 0.00 | 0.00 | 34 | 1017.3 |
| 20260510160021 | 69 | 185 | 1.0 | 8.0 | 0.00 | 0.00 | 0.00 | 29 | 1017.3 |
| 20260510155520 | 69 | 185 | 3.0 | 9.0 | 0.00 | 0.00 | 0.00 | 29 | 1017.3 |
| 20260510155020 | 69 | 185 | 5.0 | 9.0 | 0.00 | 0.00 | 0.00 | 29 | 1017.3 |
| 20260510154519 | 68 | 185 | 2.0 | 10.0 | 0.00 | 0.00 | 0.00 | 30 | 1017.2 |
| 20260510154025 | 68 | 185 | 5.0 | 10.0 | 0.00 | 0.00 | 0.00 | 30 | 1017.3 |
| 20260510153520 | 68 | 185 | 2.0 | 9.0 | 0.00 | 0.00 | 0.00 | 31 | 1017.3 |
| 20260510153018 | 67 | 185 | 5.0 | 9.0 | 0.00 | 0.00 | 0.00 | 31 | 1017.4 |
| 20260510152515 | 67 | 185 | 5.0 | 8.0 | 0.00 | 0.00 | 0.00 | 31 | 1017.3 |
| 20260510152015 | 67 | 185 | 4.0 | 10.0 | 0.00 | 0.00 | 0.00 | 32 | 1017.3 |
| 20260510151513 | 67 | 185 | 4.0 | 10.0 | 0.00 | 0.00 | 0.00 | 32 | 1017.3 |
| 20260510151014 | 66 | 185 | 4.0 | 8.0 | 0.00 | 0.00 | 0.00 | 32 | 1017.2 |
| 20260510150514 | 66 | 185 | 3.0 | 8.0 | 0.00 | 0.00 | 0.00 | 33 | 1017.2 |
| 20260510150013 | 67 | 185 | 5.0 | 8.0 | 0.00 | 0.00 | 0.00 | 32 | 1017.3 |
| 20260510145516 | 67 | 185 | 5.0 | 9.0 | 0.00 | 0.00 | 0.00 | 33 | 1017.2 |
| 20260510145012 | 66 | 185 | 6.0 | 9.0 | 0.00 | 0.00 | 0.00 | 33 | 1017.1 |
| 20260510144526 | 66 | 185 | 6.0 | 10.0 | 0.00 | 0.00 | 0.00 | 34 | 1017.1 |
| 20260510144013 | 65 | 185 | 6.0 | 12.0 | 0.00 | 0.00 | 0.00 | 34 | 1017.1 |
| 20260510143511 | 65 | 185 | 8.0 | 12.0 | 0.00 | 0.00 | 0.00 | 34 | 1017.1 |
| 20260510143024 | 64 | 185 | 8.0 | 12.0 | 0.00 | 0.00 | 0.00 | 34 | 1017.1 |
| 20260510142513 | 64 | 185 | 9.0 | 12.0 | 0.00 | 0.00 | 0.00 | 34 | 1017.0 |
| 20260510142011 | 64 | 185 | 7.0 | 11.0 | 0.00 | 0.00 | 0.00 | 34 | 1017.0 |
| 20260510141511 | 64 | 185 | 8.0 | 11.0 | 0.00 | 0.00 | 0.00 | 34 | 1017.0 |
| 20260510141011 | 63 | 185 | 6.0 | 10.0 | 0.00 | 0.00 | 0.00 | 35 | 1017.0 |
| 20260510140510 | 64 | 185 | 7.0 | 11.0 | 0.00 | 0.00 | 0.00 | 34 | 1016.8 |
| 20260510140011 | 64 | 185 | 7.0 | 11.0 | 0.00 | 0.00 | 0.00 | 35 | 1016.8 |
| 20260510135511 | 63 | 185 | 5.0 | 9.0 | 0.00 | 0.00 | 0.00 | 35 | 1016.9 |
| 20260510135011 | 62 | 185 | 5.0 | 9.0 | 0.00 | 0.00 | 0.00 | 36 | 1016.9 |
| 20260510134511 | 62 | 185 | 6.0 | 9.0 | 0.00 | 0.00 | 0.00 | 37 | 1016.8 |
| 20260510134011 | 61 | 185 | 6.0 | 9.0 | 0.00 | 0.00 | 0.00 | 38 | 1016.8 |
| 20260510133510 | 60 | 185 | 4.0 | 8.0 | 0.00 | 0.00 | 0.00 | 39 | 1016.8 |
| 20260510133009 | 59 | 185 | 5.0 | 8.0 | 0.00 | 0.00 | 0.00 | 38 | 1016.7 |
| 20260510132509 | 58 | 185 | 1.0 | 6.0 | 0.00 | 0.00 | 0.00 | 39 | 1016.7 |
| 20260510132009 | 58 | 185 | 0.0 | 1.0 | 0.00 | 0.00 | 0.00 | 39 | 1016.6 |
| 20260510131508 | 58 | 185 | 0.0 | 4.0 | 0.00 | 0.00 | 0.00 | 38 | 1016.8 |
| 20260510131013 | 58 | 185 | 1.0 | 4.0 | 0.00 | 0.00 | 0.00 | 37 | 1016.7 |
| 20260510130508 | 58 | 185 | 3.0 | 7.0 | 0.00 | 0.00 | 0.00 | 37 | 1016.6 |
| 20260510130012 | 57 | 185 | 3.0 | 7.0 | 0.00 | 0.00 | 0.00 | 38 | 1016.7 |
| 20260510125508 | 56 | 185 | 0.0 | 4.0 | 0.00 | 0.00 | 0.00 | 40 | 1016.6 |
| 20260510125007 | 55 | 185 | 0.0 | 4.0 | 0.00 | 0.00 | 0.00 | 41 | 1016.7 |
| 20260510124507 | 56 | 185 | 0.0 | 2.0 | 0.00 | 0.00 | 0.00 | 40 | 1016.6 |
| 20260510124006 | 56 | 185 | 2.0 | 3.0 | 0.00 | 0.00 | 0.00 | 39 | 1016.6 |
| 20260510123509 | 56 | 185 | 2.0 | 4.0 | 0.00 | 0.00 | 0.00 | 39 | 1016.6 |
| 20260510123005 | 57 | 185 | 3.0 | 4.0 | 0.00 | 0.00 | 0.00 | 38 | 1016.7 |
| 20260510122503 | 58 | 185 | 2.0 | 3.0 | 0.00 | 0.00 | 0.00 | 36 | 1016.6 |
| 20260510122003 | 59 | 185 | 2.0 | 4.0 | 0.00 | 0.00 | 0.00 | 36 | 1016.7 |
| 20260510121505 | 60 | 185 | 3.0 | 5.0 | 0.00 | 0.00 | 0.00 | 35 | 1016.7 |
| 20260510121004 | 60 | 185 | 3.0 | 8.0 | 0.00 | 0.00 | 0.00 | 34 | 1016.5 |
| 20260510120505 | 61 | 185 | 5.0 | 8.0 | 0.00 | 0.00 | 0.00 | 33 | 1016.4 |
| 20260510120005 | 61 | 185 | 4.0 | 8.0 | 0.00 | 0.00 | 0.00 | 32 | 1016.4 |
| 20260510115503 | 62 | 185 | 5.0 | 9.0 | 0.00 | 0.00 | 0.00 | 32 | 1016.4 |
| 20260510115001 | 62 | 185 | 5.0 | 11.0 | 0.00 | 0.00 | 0.00 | 31 | 1016.6 |
| 20260510114501 | 63 | 185 | 8.0 | 11.0 | 0.00 | 0.00 | 0.00 | 31 | 1016.7 |
| 20260510114000 | 63 | 185 | 5.0 | 10.0 | 0.00 | 0.00 | 0.00 | 30 | 1016.7 |
| 20260510113600 | 63 | 185 | 4.0 | 11.0 | 0.00 | 0.00 | 0.00 | 30 | 1016.8 |
| 20260510113104 | 63 | 185 | 2.0 | 11.0 | 0.00 | 0.00 | 0.00 | 29 | 1017.2 |
| 20260510112559 | 64 | 185 | 0.0 | 6.0 | 0.00 | 0.00 | 0.00 | 29 | 1017.4 |
| 20260510112059 | 63 | 185 | 0.0 | 7.0 | 0.00 | 0.00 | 0.00 | 29 | 1017.4 |
| 20260510111558 | 63 | 185 | 1.0 | 8.0 | 0.00 | 0.00 | 0.00 | 30 | 1017.3 |
| 20260510111059 | 64 | 185 | 3.0 | 8.0 | 0.00 | 0.00 | 0.00 | 30 | 1017.5 |
| 20260510110602 | 64 | 185 | 1.0 | 18.0 | 0.00 | 0.00 | 0.00 | 29 | 1017.8 |
| 20260510110057 | 64 | 185 | 4.0 | 27.0 | 0.00 | 0.00 | 0.00 | 29 | 1017.5 |
| 20260510105557 | 64 | 185 | 11.0 | 27.0 | 0.00 | 0.00 | 0.00 | 29 | 1017.5 |
| 20260510105056 | 63 | 185 | 12.0 | 21.0 | 0.00 | 0.00 | 0.00 | 28 | 1016.9 |
| 20260510104602 | 62 | 185 | 6.0 | 10.0 | 0.00 | 0.00 | 0.00 | 27 | 1016.8 |
| 20260510104054 | 62 | 185 | 0.0 | 7.0 | 0.00 | 0.00 | 0.00 | 26 | 1016.7 |
| 20260510103555 | 62 | 185 | 0.0 | 0.0 | 0.00 | 0.00 | 0.00 | 27 | 1016.3 |
| 20260510103053 | 62 | 185 | 0.0 | 1.0 | 0.00 | 0.00 | 0.00 | 26 | 1016.0 |
| 20260510102553 | 62 | 185 | 0.0 | 1.0 | 0.00 | 0.00 | 0.00 | 26 | 1015.9 |
| 20260510102052 | 62 | 185 | 0.0 | 0.0 | 0.00 | 0.00 | 0.00 | 26 | 1015.9 |
| 20260510101553 | 63 | 185 | 0.0 | 4.0 | 0.00 | 0.00 | 0.00 | 25 | 1016.0 |
| 20260510101053 | 63 | 185 | 0.0 | 8.0 | 0.00 | 0.00 | 0.00 | 26 | 1016.0 |
| 20260510100557 | 62 | 185 | 6.0 | 8.0 | 0.00 | 0.00 | 0.00 | 26 | 1016.1 |
| 20260510100053 | 61 | 185 | 0.0 | 0.0 | 0.00 | 0.00 | 0.00 | 27 | 1016.2 |
| 20260510095554 | 61 | 185 | 0.0 | 6.0 | 0.00 | 0.00 | 0.00 | 26 | 1016.1 |
| 20260510095052 | 63 | 185 | 0.0 | 7.0 | 0.00 | 0.00 | 0.00 | 25 | 1016.0 |
| 20260510094602 | 66 | 185 | 0.0 | 1.0 | 0.00 | 0.00 | 0.00 | 23 | 1015.9 |
| 20260510094056 | 66 | 185 | 0.0 | 16.0 | 0.00 | 0.00 | 0.00 | 23 | 1015.9 |
| 20260510093551 | 66 | 185 | 3.0 | 16.0 | 0.00 | 0.00 | 0.00 | 24 | 1015.8 |
| 20260510093111 | 64 | 185 | 6.0 | 19.0 | 0.00 | 0.00 | 0.00 | 27 | 1016.2 |
| 20260510092547 | 58 | 185 | 9.0 | 19.0 | 0.00 | 0.00 | 0.00 | 31 | 1016.6 |
| 20260510092045 | 57 | 185 | 3.0 | 7.0 | 0.00 | 0.00 | 0.00 | 29 | 1016.3 |
| 20260510091547 | 56 | 185 | 2.0 | 9.0 | 0.00 | 0.00 | 0.00 | 30 | 1016.3 |
| 20260510091047 | 55 | 185 | 3.0 | 9.0 | 0.00 | 0.00 | 0.00 | 31 | 1016.0 |
| 20260510090543 | 54 | 185 | 0.0 | 0.0 | 0.00 | 0.00 | 0.00 | 31 | 1016.3 |
| 20260510090043 | 54 | 185 | 0.0 | 0.0 | 0.00 | 0.00 | 0.00 | 31 | 1016.3 |
| 20260510085542 | 54 | 185 | 0.0 | 0.0 | 0.00 | 0.00 | 0.00 | 31 | 1016.1 |
| 20260510085041 | 53 | 185 | 0.0 | 0.0 | 0.00 | 0.00 | 0.00 | 31 | 1016.0 |
| 20260510084541 | 53 | 185 | 0.0 | 0.0 | 0.00 | 0.00 | 0.00 | 31 | 1015.8 |
| 20260510084042 | 53 | 185 | 0.0 | 0.0 | 0.00 | 0.00 | 0.00 | 32 | 1015.7 |
| 20260510083542 | 53 | 185 | 0.0 | 0.0 | 0.00 | 0.00 | 0.00 | 31 | 1015.6 |
| 20260510083037 | 53 | 185 | 0.0 | 0.0 | 0.00 | 0.00 | 0.00 | 31 | 1015.6 |
| 20260510082537 | 54 | 185 | 0.0 | 0.0 | 0.00 | 0.00 | 0.00 | 30 | 1015.5 |
| 20260510082037 | 54 | 185 | 0.0 | 0.0 | 0.00 | 0.00 | 0.00 | 29 | 1015.5 |
| 20260510081537 | 54 | 185 | 0.0 | 0.0 | 0.00 | 0.00 | 0.00 | 30 | 1015.4 |
| 20260510081037 | 53 | 185 | 0.0 | 7.0 | 0.00 | 0.00 | 0.00 | 30 | 1015.5 |
| 20260510080536 | 53 | 185 | 2.0 | 7.0 | 0.00 | 0.00 | 0.00 | 30 | 1015.5 |
| 20260510080040 | 54 | 185 | 0.0 | 0.0 | 0.00 | 0.00 | 0.00 | 30 | 1015.5 |
| 20260510075535 | 54 | 185 | 0.0 | 0.0 | 0.00 | 0.00 | 0.00 | 30 | 1015.4 |
| 20260510075038 | 54 | 185 | 0.0 | 0.0 | 0.00 | 0.00 | 0.00 | 29 | 1015.4 |
| 20260510074535 | 54 | 185 | 0.0 | 0.0 | 0.00 | 0.00 | 0.00 | 29 | 1015.5 |
| 20260510074036 | 54 | 185 | 0.0 | 0.0 | 0.00 | 0.00 | 0.00 | 29 | 1015.4 |
| 20260510073533 | 55 | 185 | 0.0 | 0.0 | 0.00 | 0.00 | 0.00 | 28 | 1015.4 |
| 20260510073041 | 54 | 185 | 0.0 | 0.0 | 0.00 | 0.00 | 0.00 | 28 | 1015.4 |
| 20260510072531 | 54 | 185 | 0.0 | 0.0 | 0.00 | 0.00 | 0.00 | 28 | 1015.5 |
| 20260510072031 | 54 | 185 | 0.0 | 0.0 | 0.00 | 0.00 | 0.00 | 28 | 1015.4 |
| 20260510071529 | 53 | 185 | 0.0 | 0.0 | 0.00 | 0.00 | 0.00 | 28 | 1015.4 |
| 20260510071029 | 53 | 185 | 0.0 | 5.0 | 0.00 | 0.00 | 0.00 | 29 | 1015.3 |
| 20260510070528 | 53 | 185 | 1.0 | 6.0 | 0.00 | 0.00 | 0.00 | 29 | 1015.3 |
| 20260510070032 | 54 | 185 | 3.0 | 6.0 | 0.00 | 0.00 | 0.00 | 28 | 1015.3 |
| 20260510065526 | 54 | 185 | 0.0 | 2.0 | 0.00 | 0.00 | 0.00 | 28 | 1015.1 |
| 20260510065025 | 54 | 185 | 1.0 | 3.0 | 0.00 | 0.00 | 0.00 | 28 | 1015.0 |
| 20260510064524 | 53 | 185 | 1.0 | 4.0 | 0.00 | 0.00 | 0.00 | 28 | 1015.0 |
| 20260510064024 | 52 | 185 | 3.0 | 4.0 | 0.00 | 0.00 | 0.00 | 28 | 1015.0 |
| 20260510063526 | 51 | 185 | 2.0 | 3.0 | 0.00 | 0.00 | 0.00 | 28 | 1015.0 |
| 20260510063022 | 51 | 185 | 2.0 | 3.0 | 0.00 | 0.00 | 0.00 | 27 | 1015.0 |
| 20260510062520 | 52 | 185 | 2.0 | 4.0 | 0.00 | 0.00 | 0.00 | 27 | 1014.9 |
| 20260510062019 | 52 | 185 | 3.0 | 4.0 | 0.00 | 0.00 | 0.00 | 27 | 1015.0 |
| 20260510061518 | 51 | 185 | 3.0 | 4.0 | 0.00 | 0.00 | 0.00 | 27 | 1014.9 |
| 20260510061019 | 52 | 185 | 3.0 | 4.0 | 0.00 | 0.00 | 0.00 | 27 | 1014.8 |
| 20260510060518 | 52 | 185 | 3.0 | 4.0 | 0.00 | 0.00 | 0.00 | 26 | 1014.7 |
| 20260510060017 | 52 | 185 | 3.0 | 4.0 | 0.00 | 0.00 | 0.00 | 26 | 1014.7 |
| 20260510055517 | 52 | 185 | 4.0 | 4.0 | 0.00 | 0.00 | 0.00 | 26 | 1014.6 |
| 20260510055017 | 52 | 185 | 3.0 | 3.0 | 0.00 | 0.00 | 0.00 | 25 | 1014.4 |
| 20260510054516 | 53 | 185 | 3.0 | 4.0 | 0.00 | 0.00 | 0.00 | 25 | 1014.4 |
| 20260510054016 | 55 | 185 | 3.0 | 4.0 | 0.00 | 0.00 | 0.00 | 24 | 1014.4 |
| 20260510053515 | 55 | 185 | 3.0 | 4.0 | 0.00 | 0.00 | 0.00 | 24 | 1014.2 |
| 20260510053042 | 56 | 185 | 2.0 | 3.0 | 0.00 | 0.00 | 0.00 | 23 | 1014.2 |
| 20260510052515 | 56 | 185 | 2.0 | 4.0 | 0.00 | 0.00 | 0.00 | 22 | 1014.2 |
| 20260510052017 | 58 | 185 | 3.0 | 7.0 | 0.00 | 0.00 | 0.00 | 22 | 1014.2 |
| 20260510051515 | 59 | 185 | 5.0 | 7.0 | 0.00 | 0.00 | 0.00 | 21 | 1014.1 |
| 20260510051015 | 59 | 185 | 5.0 | 8.0 | 0.00 | 0.00 | 0.00 | 21 | 1014.0 |
| 20260510050514 | 59 | 185 | 6.0 | 8.0 | 0.00 | 0.00 | 0.00 | 21 | 1014.0 |
| 20260510050015 | 58 | 185 | 4.0 | 6.0 | 0.00 | 0.00 | 0.00 | 22 | 1013.9 |
| 20260510045514 | 58 | 185 | 4.0 | 6.0 | 0.00 | 0.00 | 0.00 | 22 | 1013.9 |
| 20260510045114 | 58 | 185 | 4.0 | 5.0 | 0.00 | 0.00 | 0.00 | 22 | 1013.8 |
| 20260510044514 | 60 | 185 | 3.0 | 8.0 | 0.00 | 0.00 | 0.00 | 21 | 1013.9 |
| 20260510044014 | 62 | 185 | 3.0 | 10.0 | 0.00 | 0.00 | 0.00 | 19 | 1013.9 |
| 20260510043514 | 64 | 185 | 7.0 | 10.0 | 0.00 | 0.00 | 0.00 | 19 | 1013.8 |
| 20260510043019 | 64 | 185 | 8.0 | 10.0 | 0.00 | 0.00 | 0.00 | 20 | 1013.7 |
| 20260510042513 | 64 | 185 | 6.0 | 8.0 | 0.00 | 0.00 | 0.00 | 21 | 1013.8 |
| 20260510042015 | 63 | 185 | 6.0 | 8.0 | 0.00 | 0.00 | 0.00 | 21 | 1013.9 |
| 20260510041521 | 64 | 185 | 3.0 | 7.0 | 0.00 | 0.00 | 0.00 | 21 | 1013.8 |
| 20260510041012 | 64 | 185 | 5.0 | 7.0 | 0.00 | 0.00 | 0.00 | 21 | 1013.9 |
| 20260510040512 | 64 | 185 | 4.0 | 5.0 | 0.00 | 0.00 | 0.00 | 21 | 1013.8 |
| 20260510040021 | 66 | 185 | 3.0 | 6.0 | 0.00 | 0.00 | 0.00 | 19 | 1013.8 |
| 20260510035511 | 68 | 185 | 4.0 | 7.0 | 0.00 | 0.00 | 0.00 | 18 | 1013.9 |
| 20260510035013 | 70 | 185 | 5.0 | 7.0 | 0.00 | 0.00 | 0.00 | 17 | 1013.9 |
| 20260510034512 | 70 | 185 | 0.0 | 7.0 | 0.00 | 0.00 | 0.00 | 17 | 1013.8 |
| 20260510034013 | 71 | 185 | 4.0 | 21.0 | 0.00 | 0.00 | 0.00 | 17 | 1013.9 |
| 20260510033511 | 71 | 185 | 2.0 | 21.0 | 0.00 | 0.00 | 0.00 | 17 | 1013.9 |
| 20260510033010 | 70 | 185 | 6.0 | 11.0 | 0.00 | 0.00 | 0.00 | 18 | 1013.9 |
| 20260510032514 | 69 | 185 | 3.0 | 9.0 | 0.00 | 0.00 | 0.00 | 19 | 1013.9 |
| 20260510032010 | 68 | 185 | 5.0 | 9.0 | 0.00 | 0.00 | 0.00 | 19 | 1013.9 |
| 20260510031511 | 69 | 185 | 4.0 | 10.0 | 0.00 | 0.00 | 0.00 | 18 | 1013.9 |
| 20260510031010 | 70 | 185 | 8.0 | 14.0 | 0.00 | 0.00 | 0.00 | 17 | 1013.7 |
| 20260510030510 | 70 | 185 | 8.0 | 16.0 | 0.00 | 0.00 | 0.00 | 17 | 1013.6 |
| 20260510030010 | 71 | 185 | 11.0 | 16.0 | 0.00 | 0.00 | 0.00 | 17 | 1013.5 |
| 20260510025510 | 71 | 185 | 11.0 | 18.0 | 0.00 | 0.00 | 0.00 | 17 | 1013.3 |
| 20260510025010 | 71 | 185 | 11.0 | 18.0 | 0.00 | 0.00 | 0.00 | 17 | 1013.2 |
| 20260510024509 | 72 | 185 | 11.0 | 15.0 | 0.00 | 0.00 | 0.00 | 16 | 1013.2 |
| 20260510024014 | 73 | 185 | 9.0 | 18.0 | 0.00 | 0.00 | 0.00 | 15 | 1013.1 |
| 20260510023510 | 74 | 185 | 10.0 | 22.0 | 0.00 | 0.00 | 0.00 | 15 | 1012.9 |
| 20260510023009 | 73 | 185 | 16.0 | 22.0 | 0.00 | 0.00 | 0.00 | 16 | 1012.9 |
| 20260510022509 | 72 | 185 | 11.0 | 15.0 | 0.00 | 0.00 | 0.00 | 16 | 1013.0 |
| 20260510022009 | 72 | 185 | 10.0 | 14.0 | 0.00 | 0.00 | 0.00 | 16 | 1012.9 |
| 20260510021521 | 72 | 185 | 12.0 | 14.0 | 0.00 | 0.00 | 0.00 | 16 | 1012.8 |
| 20260510021008 | 71 | 185 | 10.0 | 13.0 | 0.00 | 0.00 | 0.00 | 16 | 1012.8 |
| 20260510020508 | 71 | 185 | 7.0 | 11.0 | 0.00 | 0.00 | 0.00 | 15 | 1012.7 |
| 20260510020008 | 72 | 185 | 6.0 | 10.0 | 0.00 | 0.00 | 0.00 | 15 | 1012.7 |
| 20260510015508 | 72 | 185 | 8.0 | 10.0 | 0.00 | 0.00 | 0.00 | 14 | 1012.6 |
| 20260510015008 | 72 | 185 | 6.0 | 9.0 | 0.00 | 0.00 | 0.00 | 14 | 1012.6 |
| 20260510014508 | 73 | 185 | 4.0 | 7.0 | 0.00 | 0.00 | 0.00 | 14 | 1012.5 |
| 20260510014008 | 74 | 185 | 5.0 | 7.0 | 0.00 | 0.00 | 0.00 | 13 | 1012.5 |
| 20260510013509 | 75 | 185 | 0.0 | 8.0 | 0.00 | 0.00 | 0.00 | 13 | 1012.4 |
| 20260510013007 | 76 | 185 | 3.0 | 12.0 | 0.00 | 0.00 | 0.00 | 12 | 1012.3 |
| 20260510012507 | 76 | 185 | 1.0 | 12.0 | 0.00 | 0.00 | 0.00 | 12 | 1012.3 |
| 20260510012007 | 76 | 185 | 2.0 | 10.0 | 0.00 | 0.00 | 0.00 | 12 | 1012.2 |
| 20260510011507 | 76 | 185 | 5.0 | 15.0 | 0.00 | 0.00 | 0.00 | 12 | 1012.3 |
| 20260510011007 | 76 | 185 | 11.0 | 15.0 | 0.00 | 0.00 | 0.00 | 11 | 1012.1 |
| 20260510010507 | 76 | 185 | 11.0 | 16.0 | 0.00 | 0.00 | 0.00 | 11 | 1012.0 |
| 20260510010006 | 77 | 185 | 11.0 | 16.0 | 0.00 | 0.00 | 0.00 | 11 | 1012.1 |
| 20260510005509 | 77 | 185 | 9.0 | 13.0 | 0.00 | 0.00 | 0.00 | 11 | 1012.1 |
| 20260510005008 | 77 | 185 | 5.0 | 12.0 | 0.00 | 0.00 | 0.00 | 10 | 1012.1 |
| 20260510004506 | 77 | 185 | 6.0 | 12.0 | 0.00 | 0.00 | 0.00 | 10 | 1012.1 |
| 20260510004006 | 77 | 185 | 8.0 | 13.0 | 0.00 | 0.00 | 0.00 | 10 | 1012.1 |
| 20260510003506 | 76 | 185 | 9.0 | 17.0 | 0.00 | 0.00 | 0.00 | 10 | 1012.1 |
| 20260510003006 | 77 | 185 | 12.0 | 17.0 | 0.00 | 0.00 | 0.00 | 10 | 1012.0 |
| 20260510002506 | 77 | 185 | 12.0 | 18.0 | 0.00 | 0.00 | 0.00 | 10 | 1011.9 |
| 20260510002008 | 77 | 185 | 13.0 | 18.0 | 0.00 | 0.00 | 0.00 | 10 | 1012.0 |
| 20260510001508 | 77 | 185 | 8.0 | 15.0 | 0.00 | 0.00 | 0.00 | 10 | 1012.0 |
| 20260510001005 | 77 | 185 | 9.0 | 17.0 | 0.00 | 0.00 | 0.00 | 9 | 1012.1 |
| 20260510000504 | 78 | 185 | 12.0 | 21.0 | 0.00 | 0.00 | 0.00 | 9 | 1012.0 |
| 20260510000004 | 78 | 185 | 16.0 | 21.0 | 0.00 | 0.00 | 0.00 | 10 | 1011.9 |
| 20260509235505 | 79 | 185 | 15.0 | 21.0 | 0.00 | 0.00 | 0.00 | 9 | 1011.8 |
| 20260509235005 | 79 | 185 | 13.0 | 21.0 | 0.00 | 0.00 | 0.00 | 9 | 1011.9 |
| 20260509234503 | 80 | 185 | 7.0 | 12.0 | 0.00 | 0.00 | 0.00 | 9 | 1012.1 |
| 20260509234003 | 80 | 185 | 8.0 | 16.0 | 0.00 | 0.00 | 0.00 | 9 | 1012.1 |
| 20260509233502 | 80 | 185 | 9.0 | 21.0 | 0.00 | 0.00 | 0.00 | 9 | 1012.2 |
| 20260509233001 | 80 | 185 | 10.0 | 21.0 | 0.00 | 0.00 | 0.00 | 9 | 1012.2 |
| 20260509232501 | 81 | 185 | 10.0 | 22.0 | 0.00 | 0.00 | 0.00 | 9 | 1012.2 |
| 20260509232000 | 81 | 185 | 14.0 | 22.0 | 0.00 | 0.00 | 0.00 | 8 | 1012.2 |
| 20260509231601 | 81 | 185 | 15.0 | 19.0 | 0.00 | 0.00 | 0.00 | 8 | 1012.1 |
| 20260509231059 | 82 | 185 | 11.0 | 20.0 | 0.00 | 0.00 | 0.00 | 8 | 1012.1 |
| 20260509230603 | 82 | 185 | 11.0 | 20.0 | 0.00 | 0.00 | 0.00 | 8 | 1012.3 |
| 20260509230059 | 82 | 185 | 9.0 | 23.0 | 0.00 | 0.00 | 0.00 | 8 | 1012.2 |
| 20260509225558 | 82 | 185 | 9.0 | 23.0 | 0.00 | 0.00 | 0.00 | 9 | 1012.2 |
| 20260509225058 | 82 | 185 | 14.0 | 21.0 | 0.00 | 0.00 | 0.00 | 9 | 1012.2 |
| 20260509224559 | 82 | 185 | 7.0 | 16.0 | 0.00 | 0.00 | 0.00 | 9 | 1012.3 |
| 20260509224058 | 81 | 185 | 5.0 | 26.0 | 0.00 | 0.00 | 0.00 | 9 | 1012.3 |
| 20260509223600 | 82 | 185 | 16.0 | 26.0 | 0.00 | 0.00 | 0.00 | 8 | 1012.4 |
| 20260509223101 | 82 | 185 | 15.0 | 21.0 | 0.00 | 0.00 | 0.00 | 8 | 1012.4 |
| 20260509222558 | 81 | 185 | 12.0 | 21.0 | 0.00 | 0.00 | 0.00 | 9 | 1012.4 |
| 20260509222155 | 81 | 185 | 11.0 | 22.0 | 0.00 | 0.00 | 0.00 | 9 | 1012.5 |
| 20260509221555 | 81 | 185 | 14.0 | 26.0 | 0.00 | 0.00 | 0.00 | 9 | 1012.7 |
| 20260509221055 | 81 | 185 | 17.0 | 26.0 | 0.00 | 0.00 | 0.00 | 10 | 1012.7 |
| 20260509220555 | 81 | 185 | 4.0 | 21.0 | 0.00 | 0.00 | 0.00 | 9 | 1012.6 |